createdAt,value
2018-12-13T00:00:05.125Z,3.80
2018-12-13T00:02:32.583Z,3.70
2018-12-13T00:05:00.042Z,3.70
2018-12-13T00:07:27.517Z,3.70
2018-12-13T00:09:54.978Z,3.70
2018-12-13T00:12:22.471Z,3.60
2018-12-13T00:14:49.938Z,3.70
2018-12-13T00:17:17.420Z,3.60
2018-12-13T00:19:44.915Z,3.60
2018-12-13T00:22:12.374Z,3.70
2018-12-13T00:24:39.816Z,3.70
2018-12-13T00:27:07.279Z,3.70
2018-12-13T00:29:34.787Z,3.80
2018-12-13T00:32:02.253Z,3.80
2018-12-13T00:34:29.700Z,3.80
2018-12-13T00:36:57.167Z,3.80
2018-12-13T00:39:24.620Z,3.90
2018-12-13T00:41:52.068Z,3.80
2018-12-13T00:44:19.541Z,3.80
2018-12-13T00:46:47.009Z,3.90
2018-12-13T00:49:14.460Z,3.90
2018-12-13T00:51:41.967Z,3.80
2018-12-13T00:54:09.444Z,3.90
2018-12-13T00:56:37.027Z,3.90
2018-12-13T00:59:04.487Z,3.90
2018-12-13T01:01:31.934Z,4.00
2018-12-13T01:03:59.407Z,3.90
2018-12-13T01:06:27.438Z,3.90
2018-12-13T01:08:54.888Z,3.90
2018-12-13T01:11:22.332Z,4.00
2018-12-13T01:13:49.791Z,4.00
2018-12-13T01:16:23.147Z,4.00
2018-12-13T01:18:50.928Z,4.00
2018-12-13T01:21:20.857Z,3.90
2018-12-13T01:23:47.999Z,3.80
2018-12-13T01:26:15.475Z,3.70
2018-12-13T01:28:42.966Z,3.70
2018-12-13T01:31:10.438Z,3.70
2018-12-13T01:33:37.887Z,3.70
2018-12-13T01:36:05.366Z,3.60
2018-12-13T01:38:32.843Z,3.60
2018-12-13T01:41:00.405Z,3.50
2018-12-13T01:43:27.900Z,3.50
2018-12-13T01:45:55.354Z,3.40
2018-12-13T01:48:22.810Z,3.40
2018-12-13T01:50:50.679Z,3.40
2018-12-13T01:53:18.118Z,3.30
2018-12-13T01:55:45.559Z,3.20
2018-12-13T01:58:13.461Z,3.20
2018-12-13T02:00:40.976Z,3.10
2018-12-13T02:03:08.536Z,3.00
2018-12-13T02:05:35.999Z,3.00
2018-12-13T02:08:03.501Z,3.00
2018-12-13T02:10:30.959Z,2.90
2018-12-13T02:12:58.501Z,2.90
2018-12-13T02:15:25.989Z,2.80
2018-12-13T02:17:53.435Z,2.70
2018-12-13T02:20:20.969Z,2.60
2018-12-13T02:22:48.499Z,2.50
2018-12-13T02:25:16.001Z,2.50
2018-12-13T02:27:43.449Z,2.50
2018-12-13T02:30:11.593Z,2.40
2018-12-13T02:32:39.037Z,2.40
2018-12-13T02:35:06.547Z,2.30
2018-12-13T02:37:34.000Z,2.30
2018-12-13T02:40:01.491Z,2.20
2018-12-13T02:42:28.946Z,2.20
2018-12-13T02:44:56.405Z,2.10
2018-12-13T02:47:23.894Z,2.10
2018-12-13T02:49:51.384Z,2.10
2018-12-13T02:52:18.851Z,2.10
2018-12-13T02:54:46.312Z,2.00
2018-12-13T02:57:13.764Z,2.00
2018-12-13T02:59:41.232Z,2.00
2018-12-13T03:02:08.682Z,1.90
2018-12-13T03:04:36.305Z,1.90
2018-12-13T03:07:03.945Z,2.00
2018-12-13T03:09:31.423Z,2.00
2018-12-13T03:11:58.868Z,1.90
2018-12-13T03:14:26.315Z,1.90
2018-12-13T03:16:53.797Z,1.90
2018-12-13T03:19:21.246Z,1.90
2018-12-13T03:21:48.823Z,1.90
2018-12-13T03:24:16.291Z,1.90
2018-12-13T03:26:43.753Z,1.80
2018-12-13T03:29:11.218Z,1.80
2018-12-13T03:31:38.683Z,1.80
2018-12-13T03:34:06.147Z,1.80
2018-12-13T03:36:34.886Z,1.80
2018-12-13T03:39:02.361Z,1.80
2018-12-13T03:41:29.803Z,1.90
2018-12-13T03:43:57.298Z,1.90
2018-12-13T03:46:24.760Z,2.00
2018-12-13T03:48:52.217Z,2.00
2018-12-13T03:51:19.752Z,2.00
2018-12-13T03:53:47.199Z,1.90
2018-12-13T03:56:14.656Z,1.90
2018-12-13T03:58:42.135Z,1.90
2018-12-13T04:01:09.607Z,1.90
2018-12-13T04:03:37.094Z,1.80
2018-12-13T04:06:05.485Z,1.80
2018-12-13T04:08:32.949Z,1.80
2018-12-13T04:11:00.425Z,1.70
2018-12-13T04:13:27.914Z,1.60
2018-12-13T04:15:55.366Z,1.70
2018-12-13T04:18:22.831Z,1.70
2018-12-13T04:20:50.301Z,1.60
2018-12-13T04:23:17.777Z,1.60
2018-12-13T04:25:45.218Z,1.50
2018-12-13T04:28:12.705Z,1.50
2018-12-13T04:30:40.161Z,1.40
2018-12-13T04:33:07.631Z,1.40
2018-12-13T04:35:35.112Z,1.40
2018-12-13T04:38:02.568Z,1.30
2018-12-13T04:40:30.117Z,1.30
2018-12-13T04:42:57.575Z,1.30
2018-12-13T04:45:25.028Z,1.30
2018-12-13T04:47:52.498Z,1.20
2018-12-13T04:50:19.978Z,1.20
2018-12-13T04:52:47.427Z,1.20
2018-12-13T04:55:14.919Z,1.20
2018-12-13T04:57:42.373Z,1.10
2018-12-13T05:00:09.899Z,1.10
2018-12-13T05:02:37.379Z,1.10
2018-12-13T05:05:04.927Z,1.10
2018-12-13T05:07:32.490Z,1.00
2018-12-13T05:09:59.974Z,1.00
2018-12-13T05:12:27.475Z,1.00
2018-12-13T05:14:54.941Z,1.00
2018-12-13T05:17:23.577Z,1.00
2018-12-13T05:19:51.227Z,1.00
2018-12-13T05:22:18.722Z,0.90
2018-12-13T05:24:46.219Z,0.90
2018-12-13T05:27:13.683Z,0.90
2018-12-13T05:29:41.136Z,0.90
2018-12-13T05:32:08.625Z,0.90
2018-12-13T05:34:36.089Z,0.80
2018-12-13T05:37:03.645Z,0.80
2018-12-13T05:39:31.191Z,0.90
2018-12-13T05:41:58.664Z,0.80
2018-12-13T05:44:26.130Z,0.80
2018-12-13T05:46:53.610Z,0.80
2018-12-13T05:49:21.065Z,0.70
2018-12-13T05:51:48.641Z,0.70
2018-12-13T05:54:16.102Z,0.70
2018-12-13T05:56:43.547Z,0.70
2018-12-13T05:59:11.011Z,0.60
2018-12-13T06:01:38.459Z,0.60
2018-12-13T06:04:05.941Z,0.60
2018-12-13T06:06:33.402Z,0.60
2018-12-13T06:09:00.879Z,0.60
2018-12-13T06:11:28.358Z,0.60
2018-12-13T06:13:55.804Z,0.60
2018-12-13T06:16:23.263Z,0.60
2018-12-13T06:18:50.726Z,0.60
2018-12-13T06:21:18.203Z,0.60
2018-12-13T06:23:45.647Z,0.50
2018-12-13T06:26:13.130Z,0.50
2018-12-13T06:28:40.589Z,0.60
2018-12-13T06:31:08.031Z,0.50
2018-12-13T06:33:35.517Z,0.50
2018-12-13T06:36:03.124Z,0.50
2018-12-13T06:38:30.609Z,0.50
2018-12-13T06:40:58.063Z,0.50
2018-12-13T06:43:25.511Z,0.50
2018-12-13T06:45:52.976Z,0.40
2018-12-13T06:48:20.456Z,0.40
2018-12-13T06:50:47.954Z,0.40
2018-12-13T06:53:15.568Z,0.40
2018-12-13T06:55:43.011Z,0.40
2018-12-13T06:58:10.573Z,0.40
2018-12-13T07:00:38.015Z,0.30
2018-12-13T07:03:05.475Z,0.40
2018-12-13T07:05:32.936Z,0.30
2018-12-13T07:08:00.391Z,0.30
2018-12-13T07:10:27.890Z,0.30
2018-12-13T07:12:55.476Z,0.30
2018-12-13T07:15:22.919Z,0.30
2018-12-13T07:17:50.384Z,0.20
2018-12-13T07:20:17.839Z,0.30
2018-12-13T07:22:45.289Z,0.30
2018-12-13T07:25:12.768Z,0.30
2018-12-13T07:27:40.212Z,0.30
2018-12-13T07:30:08.572Z,0.30
2018-12-13T07:32:36.012Z,0.30
2018-12-13T07:35:05.179Z,0.20
2018-12-13T07:37:32.632Z,0.20
2018-12-13T07:40:00.141Z,0.20
2018-12-13T07:42:27.609Z,0.20
2018-12-13T07:44:55.070Z,0.20
2018-12-13T07:47:22.548Z,0.20
2018-12-13T07:49:49.995Z,0.30
2018-12-13T07:52:17.496Z,0.30
2018-12-13T07:54:44.960Z,0.30
2018-12-13T07:57:12.457Z,0.30
2018-12-13T07:59:39.934Z,0.40
2018-12-13T08:02:07.382Z,0.40
2018-12-13T08:04:34.881Z,0.40
2018-12-13T08:07:02.335Z,0.50
2018-12-13T08:09:29.784Z,0.50
2018-12-13T08:11:57.283Z,0.60
2018-12-13T08:14:24.738Z,0.60
2018-12-13T08:16:52.189Z,0.70
2018-12-13T08:19:19.648Z,0.70
2018-12-13T08:21:47.104Z,0.80
2018-12-13T08:24:14.603Z,0.80
2018-12-13T08:26:42.058Z,0.90
2018-12-13T08:29:09.513Z,0.90
2018-12-13T08:31:37.001Z,0.90
2018-12-13T08:34:05.186Z,0.90
2018-12-13T08:36:32.664Z,0.90
2018-12-13T08:39:00.125Z,1.00
2018-12-13T08:41:27.655Z,1.00
2018-12-13T08:43:55.133Z,1.10
2018-12-13T08:46:22.596Z,1.10
2018-12-13T08:48:50.040Z,1.20
2018-12-13T08:51:17.669Z,1.20
2018-12-13T08:53:45.185Z,1.30
2018-12-13T08:56:12.646Z,1.30
2018-12-13T08:58:40.444Z,1.40
2018-12-13T09:01:07.921Z,1.40
2018-12-13T09:03:35.379Z,1.50
2018-12-13T09:06:02.838Z,1.50
2018-12-13T09:08:33.638Z,1.50
2018-12-13T09:10:59.843Z,1.60
2018-12-13T09:13:27.302Z,1.60
2018-12-13T09:15:54.797Z,1.60
2018-12-13T09:18:22.254Z,1.60
2018-12-13T09:20:49.696Z,1.60
2018-12-13T09:23:17.204Z,1.70
2018-12-13T09:25:44.642Z,1.80
2018-12-13T09:28:12.088Z,1.90
2018-12-13T09:30:39.559Z,1.90
2018-12-13T09:33:07.066Z,2.00
2018-12-13T09:35:34.565Z,2.10
2018-12-13T09:38:02.010Z,2.20
2018-12-13T09:40:29.470Z,2.30
2018-12-13T09:42:56.934Z,2.30
2018-12-13T09:45:24.383Z,2.30
2018-12-13T09:47:51.858Z,2.30
2018-12-13T09:50:19.299Z,2.40
2018-12-13T09:52:46.801Z,2.50
2018-12-13T09:55:14.254Z,2.50
2018-12-13T09:57:41.753Z,2.50
2018-12-13T10:00:09.938Z,2.50
2018-12-13T10:02:37.382Z,2.60
2018-12-13T10:05:05.239Z,2.70
2018-12-13T10:07:32.712Z,2.80
2018-12-13T10:10:00.174Z,2.80
2018-12-13T10:12:27.659Z,2.90
2018-12-13T10:14:55.161Z,2.90
2018-12-13T10:17:22.619Z,2.90
2018-12-13T10:19:50.098Z,2.90
2018-12-13T10:22:17.701Z,2.90
2018-12-13T10:24:45.240Z,2.90
2018-12-13T10:27:12.717Z,3.00
2018-12-13T10:29:40.178Z,3.10
2018-12-13T10:32:07.686Z,3.10
2018-12-13T10:34:35.262Z,3.20
2018-12-13T10:37:02.704Z,3.20
2018-12-13T10:39:30.156Z,3.30
2018-12-13T10:41:57.678Z,3.40
2018-12-13T10:44:30.819Z,3.60
2018-12-13T10:46:58.322Z,3.80
2018-12-13T10:49:25.775Z,3.90
2018-12-13T10:51:53.255Z,4.00
2018-12-13T10:54:20.714Z,4.10
2018-12-13T10:56:48.267Z,4.20
2018-12-13T10:59:15.745Z,4.30
2018-12-13T11:01:45.198Z,4.30
2018-12-13T11:04:12.650Z,4.30
2018-12-13T11:06:40.094Z,4.20
2018-12-13T11:09:07.597Z,4.20
2018-12-13T11:11:35.050Z,4.10
2018-12-13T11:14:02.549Z,4.10
2018-12-13T11:16:30.006Z,4.10
2018-12-13T11:18:57.506Z,4.10
2018-12-13T11:21:24.970Z,4.10
2018-12-13T11:23:52.435Z,4.20
2018-12-13T11:26:19.961Z,4.20
2018-12-13T11:28:59.252Z,4.20
2018-12-13T11:31:26.747Z,4.20
2018-12-13T11:33:54.210Z,4.30
2018-12-13T11:36:21.666Z,4.30
2018-12-13T11:38:49.131Z,4.40
2018-12-13T11:41:16.607Z,4.40
2018-12-13T11:43:44.118Z,4.40
2018-12-13T11:46:11.560Z,4.70
2018-12-13T11:48:39.026Z,4.80
2018-12-13T11:51:06.494Z,4.80
2018-12-13T11:53:34.041Z,4.80
2018-12-13T11:56:01.495Z,4.80
2018-12-13T11:58:28.944Z,4.90
2018-12-13T12:00:56.422Z,5.00
2018-12-13T12:03:23.886Z,5.20
2018-12-13T12:05:51.377Z,5.60
2018-12-13T12:08:18.827Z,6.00
2018-12-13T12:10:46.290Z,6.60
2018-12-13T12:13:13.795Z,7.30
2018-12-13T12:15:41.295Z,8.30
2018-12-13T12:18:08.746Z,8.90
2018-12-13T12:20:36.285Z,9.10
2018-12-13T12:23:03.745Z,9.40
2018-12-13T12:25:31.185Z,9.60
2018-12-13T12:27:58.670Z,10.10
2018-12-13T12:30:26.149Z,10.30
2018-12-13T12:32:53.638Z,10.60
2018-12-13T12:35:20.673Z,10.60
2018-12-13T12:37:47.675Z,11.10
2018-12-13T12:40:14.719Z,11.40
2018-12-13T12:42:41.737Z,11.50
2018-12-13T12:45:08.761Z,11.70
2018-12-13T12:47:35.851Z,12.00
2018-12-13T12:50:03.597Z,12.50
2018-12-13T12:52:30.715Z,13.00
2018-12-13T12:54:57.744Z,13.40
2018-12-13T12:57:24.743Z,13.80
2018-12-13T12:59:51.798Z,14.20
2018-12-13T13:02:18.807Z,13.90
2018-12-13T13:04:45.847Z,12.70
2018-12-13T13:07:12.874Z,11.90
2018-12-13T13:09:39.969Z,11.20
2018-12-13T13:12:07.024Z,10.40
2018-12-13T13:14:34.023Z,10.00
2018-12-13T13:17:01.054Z,9.60
2018-12-13T13:19:28.112Z,9.90
2018-12-13T13:21:55.149Z,9.80
2018-12-13T13:24:22.147Z,9.70
2018-12-13T13:26:49.163Z,9.40
2018-12-13T13:29:16.167Z,9.20
2018-12-13T13:31:43.202Z,8.90
2018-12-13T13:34:10.696Z,8.50
2018-12-13T13:36:38.187Z,8.00
2018-12-13T13:39:06.464Z,7.60
2018-12-13T13:41:33.921Z,7.40
2018-12-13T13:44:01.394Z,7.10
2018-12-13T13:46:28.854Z,6.90
2018-12-13T13:48:56.312Z,6.60
2018-12-13T13:51:23.759Z,6.40
2018-12-13T13:53:51.226Z,6.10
2018-12-13T13:56:18.686Z,6.00
2018-12-13T13:58:46.123Z,5.80
2018-12-13T14:01:13.590Z,5.70
2018-12-13T14:03:41.032Z,5.60
2018-12-13T14:06:08.505Z,5.60
2018-12-13T14:08:35.977Z,5.30
2018-12-13T14:11:03.438Z,5.30
2018-12-13T14:13:30.923Z,5.20
2018-12-13T14:15:58.394Z,5.10
2018-12-13T14:18:25.902Z,5.00
2018-12-13T14:20:53.424Z,5.00
2018-12-13T14:23:20.922Z,4.90
2018-12-13T14:25:48.395Z,5.00
2018-12-13T14:28:15.841Z,5.00
2018-12-13T14:30:43.341Z,4.90
2018-12-13T14:33:11.133Z,4.90
2018-12-13T14:35:38.567Z,5.00
2018-12-13T14:38:06.052Z,5.00
2018-12-13T14:40:33.535Z,5.00
2018-12-13T14:43:01.004Z,5.00
2018-12-13T14:45:28.581Z,4.90
2018-12-13T14:47:57.086Z,4.80
2018-12-13T14:50:24.537Z,4.90
2018-12-13T14:52:52.017Z,4.80
2018-12-13T14:55:19.483Z,4.80
2018-12-13T14:57:46.991Z,4.90
2018-12-13T15:00:14.496Z,4.80
2018-12-13T15:02:41.954Z,4.80
2018-12-13T15:05:09.842Z,4.70
2018-12-13T15:07:37.303Z,4.60
2018-12-13T15:10:04.863Z,4.70
2018-12-13T15:12:32.311Z,4.70
2018-12-13T15:14:59.806Z,4.70
2018-12-13T15:17:27.297Z,4.70
2018-12-13T15:19:54.742Z,4.60
2018-12-13T15:22:22.197Z,4.60
2018-12-13T15:24:49.669Z,4.50
2018-12-13T15:27:17.186Z,4.50
2018-12-13T15:29:44.645Z,4.50
2018-12-13T15:32:12.122Z,4.40
2018-12-13T15:34:39.560Z,4.40
2018-12-13T15:37:07.019Z,4.40
2018-12-13T15:39:34.517Z,4.30
2018-12-13T15:42:02.039Z,4.40
2018-12-13T15:44:29.544Z,4.30
2018-12-13T15:46:57.011Z,4.40
2018-12-13T15:49:24.966Z,4.40
2018-12-13T15:51:52.426Z,4.40
2018-12-13T15:54:19.901Z,4.40
2018-12-13T15:56:47.360Z,4.40
2018-12-13T15:59:14.950Z,4.30
2018-12-13T16:01:42.390Z,4.40
2018-12-13T16:04:09.856Z,4.30
2018-12-13T16:06:37.330Z,4.20
2018-12-13T16:09:06.001Z,4.20
2018-12-13T16:11:33.595Z,4.30
2018-12-13T16:14:01.040Z,4.30
2018-12-13T16:16:28.495Z,4.20
2018-12-13T16:18:55.960Z,4.20
2018-12-13T16:21:23.550Z,4.20
2018-12-13T16:23:51.031Z,4.20
2018-12-13T16:26:18.512Z,4.10
2018-12-13T16:28:46.010Z,4.10
2018-12-13T16:31:13.474Z,4.20
2018-12-13T16:33:40.938Z,4.10
2018-12-13T16:36:08.411Z,4.10
2018-12-13T16:38:36.115Z,4.00
2018-12-13T16:41:03.671Z,4.10
2018-12-13T16:43:31.173Z,4.10
2018-12-13T16:45:58.663Z,4.10
2018-12-13T16:48:26.121Z,4.10
2018-12-13T16:50:53.702Z,4.10
2018-12-13T16:53:21.166Z,4.10
2018-12-13T16:55:48.670Z,4.00
2018-12-13T16:58:16.150Z,4.00
2018-12-13T17:00:43.603Z,4.10
2018-12-13T17:03:23.085Z,4.10
2018-12-13T17:05:50.542Z,4.00
2018-12-13T17:08:18.115Z,4.00
2018-12-13T17:10:45.573Z,4.00
2018-12-13T17:13:13.121Z,4.00
2018-12-13T17:15:40.581Z,4.00
2018-12-13T17:18:08.132Z,4.00
2018-12-13T17:20:35.649Z,4.00
2018-12-13T17:23:03.158Z,4.00
2018-12-13T17:25:30.644Z,3.90
2018-12-13T17:27:58.124Z,4.00
2018-12-13T17:30:25.605Z,3.90
2018-12-13T17:32:53.082Z,3.90
2018-12-13T17:35:20.586Z,3.80
2018-12-13T17:37:48.084Z,3.80
2018-12-13T17:40:15.603Z,3.80
2018-12-13T17:42:43.066Z,3.80
2018-12-13T17:45:10.730Z,3.80
2018-12-13T17:47:38.171Z,3.80
2018-12-13T17:50:05.966Z,3.80
2018-12-13T17:52:33.569Z,3.80
2018-12-13T17:55:01.072Z,3.80
2018-12-13T17:57:28.546Z,3.70
2018-12-13T17:59:56.046Z,3.70
2018-12-13T18:02:23.954Z,3.70
2018-12-13T18:04:51.402Z,3.70
2018-12-13T18:07:18.933Z,3.70
2018-12-13T18:09:46.375Z,3.70
2018-12-13T18:12:13.894Z,3.70
2018-12-13T18:14:41.336Z,3.70
2018-12-13T18:17:08.891Z,3.80
2018-12-13T18:19:36.358Z,3.80
2018-12-13T18:22:03.856Z,3.80
2018-12-13T18:24:31.337Z,3.80
2018-12-13T18:26:58.906Z,3.90
2018-12-13T18:29:26.354Z,3.90
2018-12-13T18:31:53.879Z,3.80
2018-12-13T18:34:21.327Z,3.80
2018-12-13T18:36:48.826Z,3.70
2018-12-13T18:39:16.273Z,3.70
2018-12-13T18:41:43.734Z,3.70
2018-12-13T18:44:11.224Z,3.70
2018-12-13T18:46:38.712Z,3.70
2018-12-13T18:49:06.159Z,3.70
2018-12-13T18:51:33.629Z,3.70
2018-12-13T18:54:01.075Z,3.60
2018-12-13T18:56:28.553Z,3.60
2018-12-13T18:58:56.001Z,3.60
2018-12-13T19:01:23.901Z,3.60
2018-12-13T19:03:51.342Z,3.60
2018-12-13T19:06:18.819Z,3.60
2018-12-13T19:08:46.318Z,3.60
2018-12-13T19:11:13.770Z,3.50
2018-12-13T19:13:41.378Z,3.50
2018-12-13T19:16:08.843Z,3.50
2018-12-13T19:18:36.311Z,3.50
2018-12-13T19:21:03.826Z,3.40
2018-12-13T19:23:31.302Z,3.40
2018-12-13T19:25:58.902Z,3.30
2018-12-13T19:28:26.362Z,3.40
2018-12-13T19:30:53.804Z,3.40
2018-12-13T19:33:21.351Z,3.50
2018-12-13T19:35:48.815Z,3.50
2018-12-13T19:38:16.499Z,3.50
2018-12-13T19:40:48.368Z,3.50
2018-12-13T19:43:13.477Z,3.50
2018-12-13T19:45:40.942Z,3.50
2018-12-13T19:48:08.407Z,3.40
2018-12-13T19:50:36.046Z,3.30
2018-12-13T19:53:03.827Z,3.30
2018-12-13T19:55:31.326Z,3.20
2018-12-13T19:57:58.807Z,3.10
2018-12-13T20:00:26.283Z,3.10
2018-12-13T20:02:53.783Z,2.90
2018-12-13T20:05:21.266Z,2.80
2018-12-13T20:07:48.722Z,2.80
2018-12-13T20:10:16.184Z,2.70
2018-12-13T20:12:43.642Z,2.60
2018-12-13T20:15:11.144Z,2.60
2018-12-13T20:17:38.605Z,2.60
2018-12-13T20:20:06.188Z,2.60
2018-12-13T20:22:34.525Z,2.60
2018-12-13T20:25:01.976Z,2.60
2018-12-13T20:27:29.553Z,2.60
2018-12-13T20:29:56.996Z,2.70
2018-12-13T20:32:24.695Z,2.80
2018-12-13T20:34:52.435Z,2.80
2018-12-13T20:37:19.950Z,2.90
2018-12-13T20:39:47.430Z,2.90
2018-12-13T20:42:14.918Z,2.90
2018-12-13T20:44:42.370Z,2.90
2018-12-13T20:47:09.818Z,3.00
2018-12-13T20:49:37.313Z,3.00
2018-12-13T20:52:04.804Z,3.00
2018-12-13T20:54:32.269Z,3.10
2018-12-13T20:56:59.729Z,3.10
2018-12-13T20:59:27.276Z,3.10
2018-12-13T21:01:54.843Z,3.10
2018-12-13T21:04:22.294Z,3.20
2018-12-13T21:06:51.730Z,3.20
2018-12-13T21:09:19.230Z,3.20
2018-12-13T21:11:46.772Z,3.20
2018-12-13T21:14:14.226Z,3.30
2018-12-13T21:16:41.670Z,3.30
2018-12-13T21:19:09.156Z,3.20
2018-12-13T21:21:36.703Z,3.20
2018-12-13T21:24:04.610Z,3.30
2018-12-13T21:26:32.264Z,3.30
2018-12-13T21:28:59.706Z,3.30
2018-12-13T21:31:27.230Z,3.40
2018-12-13T21:33:54.806Z,3.30
2018-12-13T21:36:22.262Z,3.30
2018-12-13T21:38:49.787Z,3.20
2018-12-13T21:41:17.265Z,3.20
2018-12-13T21:43:44.719Z,3.10
2018-12-13T21:46:12.324Z,3.00
2018-12-13T21:48:39.797Z,2.90
2018-12-13T21:51:07.236Z,2.80
2018-12-13T21:53:34.737Z,2.70
2018-12-13T21:56:02.241Z,2.60
2018-12-13T21:58:29.739Z,2.50
2018-12-13T22:00:57.256Z,2.50
2018-12-13T22:03:24.755Z,2.40
2018-12-13T22:05:52.207Z,2.40
2018-12-13T22:08:19.668Z,2.30
2018-12-13T22:10:47.626Z,2.20
2018-12-13T22:13:15.187Z,2.20
2018-12-13T22:15:42.711Z,2.10
2018-12-13T22:18:10.182Z,2.00
2018-12-13T22:20:37.627Z,2.00
2018-12-13T22:23:05.603Z,1.90
2018-12-13T22:25:33.067Z,1.90
2018-12-13T22:28:00.526Z,1.90
2018-12-13T22:30:28.023Z,1.90
2018-12-13T22:32:55.488Z,1.80
2018-12-13T22:35:22.990Z,1.80
2018-12-13T22:37:50.446Z,1.80
2018-12-13T22:40:18.072Z,1.80
2018-12-13T22:42:45.567Z,1.80
2018-12-13T22:45:13.031Z,1.80
2018-12-13T22:47:40.491Z,1.80
2018-12-13T22:50:08.005Z,1.70
2018-12-13T22:52:35.487Z,1.70
2018-12-13T22:55:03.377Z,1.60
2018-12-13T22:57:30.882Z,1.70
2018-12-13T22:59:58.335Z,1.60
2018-12-13T23:02:25.879Z,1.50
2018-12-13T23:04:53.388Z,1.50
2018-12-13T23:07:20.840Z,1.40
2018-12-13T23:09:48.323Z,1.50
2018-12-13T23:12:15.787Z,1.50
2018-12-13T23:14:43.236Z,1.50
2018-12-13T23:17:10.948Z,1.40
2018-12-13T23:19:38.402Z,1.40
2018-12-13T23:22:05.977Z,1.40
2018-12-13T23:24:33.535Z,1.40
2018-12-13T23:27:01.001Z,1.40
2018-12-13T23:29:28.479Z,1.40
2018-12-13T23:31:55.945Z,1.40
2018-12-13T23:34:23.414Z,1.40
2018-12-13T23:36:50.890Z,1.30
2018-12-13T23:39:18.513Z,1.30
2018-12-13T23:41:45.960Z,1.30
2018-12-13T23:44:13.428Z,1.20
2018-12-13T23:46:40.907Z,1.20
2018-12-13T23:49:08.361Z,1.20
2018-12-13T23:51:35.817Z,1.10
2018-12-13T23:54:03.532Z,1.10
2018-12-13T23:56:30.983Z,1.10
2018-12-13T23:58:58.706Z,1.10
